Time;durP1;ratioP1;P1;durP2;ratioP2;P2;SDS_P1;SDS_P2;PMS_P1;PMS_P2;Temp;Humidity;BMP_temperature;BMP_pressure;BME280_temperature;BME280_humidity;BME280_pressure;Samples;Min_cycle;Max_cycle;Signal;HPM_P1;HPM_P2
2020/12/17 00:00:04;;;;;;;;;;;;;;;-1.14;100.00;93258.66;1063489;55;20222;-85
2020/12/17 00:01:06;;;;;;;;;;;;;;;-1.11;100.00;93256.13;1061602;56;20222;-84
2020/12/17 00:02:09;;;;;;;;;;;;;;;-1.18;100.00;93255.97;1065036;55;20239;-84
2020/12/17 00:03:10;;;;;;;;;;;;;;;-1.19;100.00;93251.78;1063775;55;20149;-84
2020/12/17 00:04:10;;;;;;;;;;;;;;;-1.22;100.00;93249.88;1063757;55;20158;-84
2020/12/17 00:05:11;;;;;;;;;;;;;;;-1.24;100.00;93259.91;1065820;55;20968;-85
2020/12/17 00:06:12;;;;;;;;;;;;;;;-1.24;100.00;93249.44;1064656;55;20173;-84
2020/12/17 00:07:12;;;;;;;;;;;;;;;-1.18;100.00;93252.59;1061507;55;20150;-85
2020/12/17 00:08:18;;;;;;;;;;;;;;;-1.21;100.00;93248.75;1063589;55;20661;-84
2020/12/17 00:09:19;;;;;;;;;;;;;;;-1.19;100.00;93251.03;1066049;55;20266;-84
2020/12/17 00:10:20;;;;;;;;;;;;;;;-1.22;100.00;93246.50;1063674;55;20669;-84
2020/12/17 00:11:20;;;;;;;;;;;;;;;-1.30;100.00;93248.16;1061551;56;20238;-84
2020/12/17 00:12:21;;;;;;;;;;;;;;;-1.35;100.00;93249.19;1065919;55;20192;-84
2020/12/17 00:13:22;;;;;;;;;;;;;;;-1.33;100.00;93246.22;1067955;55;20265;-85
2020/12/17 00:14:23;;;;;;;;;;;;;;;-1.33;100.00;93248.84;1063520;55;20617;-85
2020/12/17 00:15:23;;;;;;;;;;;;;;;-1.34;100.00;93249.94;1063501;55;20254;-85
2020/12/17 00:16:24;;;;;;;;;;;;;;;-1.35;100.00;93251.03;1065836;55;20192;-85
2020/12/17 00:17:26;;;;;;;;;;;;;;;-1.41;100.00;93255.00;1063755;55;20162;-85
2020/12/17 00:18:26;;;;;;;;;;;;;;;-1.44;100.00;93253.06;1063881;55;20150;-84
2020/12/17 00:19:27;;;;;;;;;;;;;;;-1.45;100.00;93248.91;1063672;55;20185;-85
2020/12/17 00:20:27;;;;;;;;;;;;;;;-1.46;100.00;93255.25;1061479;56;20162;-85
2020/12/17 00:21:28;;;;;;;;;;;;;;;-1.47;100.00;93251.88;1061451;56;20205;-85
2020/12/17 00:22:32;;;;;;;;;;;;;;;-1.48;100.00;93247.72;1063546;55;20186;-85
2020/12/17 00:23:33;;;;;;;;;;;;;;;-1.48;100.00;93241.72;1065910;55;20166;-86
2020/12/17 00:24:33;;;;;;;;;;;;;;;-1.53;100.00;93246.13;1065745;55;20173;-84
2020/12/17 00:25:34;;;;;;;;;;;;;;;-1.50;100.00;93243.91;1063501;55;20177;-84
2020/12/17 00:26:35;;;;;;;;;;;;;;;-1.47;100.00;93245.88;1065947;55;20642;-85
2020/12/17 00:27:37;;;;;;;;;;;;;;;-1.42;100.00;93246.38;1065813;55;20208;-83
2020/12/17 00:28:38;;;;;;;;;;;;;;;-1.42;100.00;93245.63;1063687;55;20177;-84
2020/12/17 00:29:38;;;;;;;;;;;;;;;-1.35;100.00;93251.03;1063642;55;20153;-85
2020/12/17 00:30:39;;;;;;;;;;;;;;;-1.29;100.00;93247.06;1061411;56;20158;-84
2020/12/17 00:31:39;;;;;;;;;;;;;;;-1.25;100.00;93231.44;1063753;55;20262;-84
2020/12/17 00:32:40;;;;;;;;;;;;;;;-1.29;100.00;93242.56;1065620;55;20145;-85
2020/12/17 00:33:41;;;;;;;;;;;;;;;-1.34;100.00;93240.22;1063560;55;20162;-85
2020/12/17 00:34:42;;;;;;;;;;;;;;;-1.29;100.00;93236.56;1065782;55;20590;-84
2020/12/17 00:35:44;;;;;;;;;;;;;;;-1.25;100.00;93242.66;1065717;55;20162;-84
2020/12/17 00:36:45;;;;;;;;;;;;;;;-1.29;100.00;93237.34;1065905;55;20188;-85
2020/12/17 00:37:45;;;;;;;;;;;;;;;-1.23;100.00;93235.22;1065718;55;20184;-85
2020/12/17 00:38:47;;;;;;;;;;;;;;;-1.20;100.00;93242.41;1063728;55;20157;-85
2020/12/17 00:39:47;;;;;;;;;;;;;;;-1.32;100.00;93245.09;1066383;55;20600;-85
2020/12/17 00:40:48;;;;;;;;;;;;;;;-1.16;100.00;93245.88;1065725;55;20199;-83
2020/12/17 00:41:49;;;;;;;;;;;;;;;-1.25;100.00;93241.91;1063795;55;20166;-84
2020/12/17 00:42:50;;;;;;;;;;;;;;;-1.18;100.00;93242.84;1063679;55;20182;-86
2020/12/17 00:43:51;;;;;;;;;;;;;;;-1.15;100.00;93251.88;1065821;55;20250;-84
2020/12/17 00:44:51;;;;;;;;;;;;;;;-1.16;100.00;93253.75;1065774;55;20244;-85
2020/12/17 00:45:52;;;;;;;;;;;;;;;-1.14;100.00;93248.94;1065653;55;20645;-83
2020/12/17 00:46:52;;;;;;;;;;;;;;;-1.15;100.00;93246.66;1063477;55;20622;-85
2020/12/17 00:47:53;;;;;;;;;;;;;;;-1.24;100.00;93244.19;1065648;55;20247;-86
2020/12/17 00:48:54;;;;;;;;;;;;;;;-1.27;100.00;93247.50;1063531;55;20147;-85
2020/12/17 00:49:54;;;;;;;;;;;;;;;-1.18;100.00;93245.47;1065649;55;20654;-86
2020/12/17 00:50:55;;;;;;;;;;;;;;;-1.07;100.00;93251.72;1065730;55;20246;-85
2020/12/17 00:51:59;;;;;;;;;;;;;;;-1.17;100.00;93248.84;1065818;55;20181;-85
2020/12/17 00:53:00;;;;;;;;;;;;;;;-1.22;100.00;93251.72;1065989;55;20173;-84
2020/12/17 00:54:00;;;;;;;;;;;;;;;-1.24;100.00;93259.91;1065682;55;20270;-84
2020/12/17 00:55:00;;;;;;;;;;;;;;;-1.26;100.00;93256.88;1063466;55;20161;-85
2020/12/17 00:56:01;;;;;;;;;;;;;;;-1.25;100.00;93258.41;1063606;55;20185;-85
2020/12/17 00:57:02;;;;;;;;;;;;;;;-1.28;100.00;93257.19;1065720;55;20150;-86
2020/12/17 00:58:04;;;;;;;;;;;;;;;-1.20;100.00;93254.78;1063461;55;20637;-86
2020/12/17 00:59:04;;;;;;;;;;;;;;;-1.25;100.00;93253.16;1065866;55;20188;-84
2020/12/17 01:00:06;;;;;;;;;;;;;;;-1.16;100.00;93266.88;1065831;55;20207;-85
2020/12/17 01:01:07;;;;;;;;;;;;;;;-1.21;100.00;93254.00;1061567;55;20807;-84
2020/12/17 01:02:10;;;;;;;;;;;;;;;-1.25;100.00;93260.28;1063859;55;20170;-84
2020/12/17 01:03:11;;;;;;;;;;;;;;;-1.23;100.00;93261.44;1068030;55;20161;-85
2020/12/17 01:04:12;;;;;;;;;;;;;;;-1.22;100.00;93268.22;1067889;55;20161;-84
2020/12/17 01:05:15;;;;;;;;;;;;;;;-1.21;100.00;93261.88;1065906;55;20184;-84
2020/12/17 01:06:15;;;;;;;;;;;;;;;-1.19;100.00;93264.16;1067196;55;20203;-84
2020/12/17 01:07:20;;;;;;;;;;;;;;;-1.22;100.00;93251.72;1063670;55;20158;-85
2020/12/17 01:08:20;;;;;;;;;;;;;;;-1.21;100.00;93255.87;1061509;55;20154;-84
2020/12/17 01:09:21;;;;;;;;;;;;;;;-1.20;100.00;93257.38;1065242;55;20755;-84
2020/12/17 01:10:22;;;;;;;;;;;;;;;-1.21;100.00;93264.50;1065670;55;20258;-85
2020/12/17 01:11:27;;;;;;;;;;;;;;;-1.19;100.00;93261.53;1061493;56;20163;-84
2020/12/17 01:12:30;;;;;;;;;;;;;;;-1.22;100.00;93270.84;1061850;55;20162;-85
2020/12/17 01:13:31;;;;;;;;;;;;;;;-1.21;100.00;93264.50;1061349;56;20185;-85
2020/12/17 01:14:32;;;;;;;;;;;;;;;-1.14;100.00;93269.13;1063748;55;20614;-85
2020/12/17 01:15:33;;;;;;;;;;;;;;;-1.19;100.00;93272.78;1061441;56;20217;-85
2020/12/17 01:16:33;;;;;;;;;;;;;;;-1.19;100.00;93274.62;1061431;56;20162;-84
2020/12/17 01:17:34;;;;;;;;;;;;;;;-1.24;100.00;93275.66;1061395;56;20166;-84
2020/12/17 01:18:35;;;;;;;;;;;;;;;-1.21;100.00;93280.22;1059403;56;20182;-84
2020/12/17 01:19:36;;;;;;;;;;;;;;;-1.24;100.00;93275.66;1063773;55;20154;-84
2020/12/17 01:20:37;;;;;;;;;;;;;;;-1.29;100.00;93279.28;1068213;55;20637;-87
2020/12/17 01:21:37;;;;;;;;;;;;;;;-1.30;100.00;93282.25;1065752;55;20165;-84
2020/12/17 01:22:38;;;;;;;;;;;;;;;-1.28;100.00;93275.56;1065903;55;20154;-83
2020/12/17 01:23:38;;;;;;;;;;;;;;;-1.33;100.00;93285.53;1065837;55;20184;-85
2020/12/17 01:24:40;;;;;;;;;;;;;;;-1.31;100.00;93289.38;1063468;55;20587;-85
2020/12/17 01:25:42;;;;;;;;;;;;;;;-1.38;100.00;93283.94;1063725;55;20251;-84
2020/12/17 01:26:43;;;;;;;;;;;;;;;-1.29;100.00;93275.91;1065681;55;20177;-84
2020/12/17 01:27:44;;;;;;;;;;;;;;;-1.36;100.00;93281.75;1063704;55;20589;-84
2020/12/17 01:28:44;;;;;;;;;;;;;;;-1.39;100.00;93285.03;1063651;55;20185;-85
2020/12/17 01:29:45;;;;;;;;;;;;;;;-1.34;100.00;93279.53;1063596;55;20166;-84
2020/12/17 01:30:45;;;;;;;;;;;;;;;-1.34;100.00;93284.03;1063681;55;20348;-85
2020/12/17 01:31:47;;;;;;;;;;;;;;;-1.30;100.00;93269.16;1063587;55;20665;-85
2020/12/17 01:32:49;;;;;;;;;;;;;;;-1.29;100.00;93275.91;1063572;55;20169;-84
2020/12/17 01:33:50;;;;;;;;;;;;;;;-1.24;100.00;93278.28;1061418;56;20649;-85
2020/12/17 01:34:50;;;;;;;;;;;;;;;-1.21;100.00;93282.84;1061374;56;20206;-85
2020/12/17 01:35:51;;;;;;;;;;;;;;;-1.26;100.00;93277.87;1062159;56;20651;-85
2020/12/17 01:36:52;;;;;;;;;;;;;;;-1.30;100.00;93284.88;1061344;56;20173;-86
2020/12/17 01:37:53;;;;;;;;;;;;;;;-1.21;100.00;93282.09;1061420;56;20188;-85
2020/12/17 01:38:54;;;;;;;;;;;;;;;-1.29;100.00;93289.00;1062008;56;20162;-85
2020/12/17 01:39:55;;;;;;;;;;;;;;;-1.32;100.00;93292.31;1065797;55;20166;-85
2020/12/17 01:40:55;;;;;;;;;;;;;;;-1.32;100.00;93287.06;1063684;55;20204;-84
2020/12/17 01:41:56;;;;;;;;;;;;;;;-1.30;100.00;93296.13;1061472;56;20174;-85
2020/12/17 01:42:56;;;;;;;;;;;;;;;-1.29;100.00;93281.91;1060103;56;20185;-84
2020/12/17 01:44:01;;;;;;;;;;;;;;;-1.35;100.00;93293.00;1062352;56;20176;-85
2020/12/17 01:45:02;;;;;;;;;;;;;;;-1.31;100.00;93291.97;1065892;55;20184;-84
2020/12/17 01:46:04;;;;;;;;;;;;;;;-1.35;100.00;93290.38;1065616;55;20209;-84
2020/12/17 01:47:05;;;;;;;;;;;;;;;-1.34;100.00;93287.41;1063743;55;20638;-84
2020/12/17 01:48:07;;;;;;;;;;;;;;;-1.32;100.00;93289.69;1065711;55;20174;-84
2020/12/17 01:49:09;;;;;;;;;;;;;;;-1.35;100.00;93290.38;1067782;55;20184;-84
2020/12/17 01:50:10;;;;;;;;;;;;;;;-1.34;100.00;93299.75;1063486;55;20166;-85
2020/12/17 01:51:11;;;;;;;;;;;;;;;-1.31;100.00;93306.97;1063518;55;20161;-85
2020/12/17 01:52:12;;;;;;;;;;;;;;;-1.37;100.00;93295.16;1063630;55;20188;-84
2020/12/17 01:53:13;;;;;;;;;;;;;;;-1.42;100.00;93298.03;1063486;55;20236;-85
2020/12/17 01:54:14;;;;;;;;;;;;;;;-1.41;100.00;93302.94;1061266;56;20174;-86
2020/12/17 01:55:18;;;;;;;;;;;;;;;-1.39;100.00;93297.38;1059448;56;20193;-85
2020/12/17 01:56:28;;;;;;;;;;;;;;;-1.32;100.00;93290.47;1063567;55;20161;-84
2020/12/17 01:57:30;;;;;;;;;;;;;;;-1.35;100.00;93296.38;1063401;55;20169;-85
2020/12/17 01:58:33;;;;;;;;;;;;;;;-1.44;100.00;93300.25;1061457;55;21083;-84
2020/12/17 01:59:48;;;;;;;;;;;;;;;-1.42;100.00;93290.94;1063581;55;20303;-86
2020/12/17 02:00:52;;;;;;;;;;;;;;;-1.47;100.00;93299.06;1061541;56;20166;-86
2020/12/17 02:01:53;;;;;;;;;;;;;;;-1.48;100.00;93302.78;1063750;55;20248;-85
2020/12/17 02:02:54;;;;;;;;;;;;;;;-1.41;100.00;93297.69;1065690;55;20157;-84
2020/12/17 02:03:56;;;;;;;;;;;;;;;-1.41;100.00;93304.81;1063607;55;20166;-84
2020/12/17 02:04:58;;;;;;;;;;;;;;;-1.41;100.00;93304.81;1067727;55;21209;-85
2020/12/17 02:05:58;;;;;;;;;;;;;;;-1.34;100.00;93303.13;1068176;55;20196;-85
2020/12/17 02:06:59;;;;;;;;;;;;;;;-1.34;100.00;93305.75;1063421;55;20177;-85
2020/12/17 02:08:00;;;;;;;;;;;;;;;-1.33;100.00;93294.16;1065649;55;20209;-84
2020/12/17 02:09:03;;;;;;;;;;;;;;;-1.31;100.00;93301.72;1069732;55;20589;-85
2020/12/17 02:10:05;;;;;;;;;;;;;;;-1.35;100.00;93306.84;1067887;55;20633;-84
2020/12/17 02:11:09;;;;;;;;;;;;;;;-1.36;100.00;93312.41;1067954;55;20187;-85
2020/12/17 02:12:10;;;;;;;;;;;;;;;-1.36;100.00;93307.19;1067795;55;20252;-84
2020/12/17 02:13:11;;;;;;;;;;;;;;;-1.45;100.00;93311.81;1065803;55;20679;-83
2020/12/17 02:14:13;;;;;;;;;;;;;;;-1.41;100.00;93307.41;1065465;55;20678;-85
2020/12/17 02:15:17;;;;;;;;;;;;;;;-1.44;100.00;93311.50;1065555;55;20149;-86
2020/12/17 02:16:20;;;;;;;;;;;;;;;-1.38;100.00;93304.91;1067885;55;20191;-85
2020/12/17 02:17:22;;;;;;;;;;;;;;;-1.36;100.00;93312.41;1065462;55;20157;-85
2020/12/17 02:18:23;;;;;;;;;;;;;;;-1.38;100.00;93304.13;1065472;55;20150;-85
2020/12/17 02:19:24;;;;;;;;;;;;;;;-1.40;100.00;93308.97;1067778;55;20601;-85
2020/12/17 02:20:24;;;;;;;;;;;;;;;-1.36;100.00;93312.41;1067688;55;20141;-84
2020/12/17 02:21:25;;;;;;;;;;;;;;;-1.40;100.00;93312.34;1067755;55;20207;-86
2020/12/17 02:22:25;;;;;;;;;;;;;;;-1.39;100.00;93310.50;1067832;55;20688;-85
2020/12/17 02:23:27;;;;;;;;;;;;;;;-1.42;100.00;93314.53;1065763;55;20187;-84
2020/12/17 02:24:28;;;;;;;;;;;;;;;-1.40;100.00;93309.72;1065579;55;20306;-84
2020/12/17 02:25:28;;;;;;;;;;;;;;;-1.37;100.00;93310.91;1065608;55;20251;-83
2020/12/17 02:26:29;;;;;;;;;;;;;;;-1.41;100.00;93310.03;1065610;55;20161;-88
2020/12/17 02:27:30;;;;;;;;;;;;;;;-1.41;100.00;93313.44;1067792;55;20691;-85
2020/12/17 02:28:31;;;;;;;;;;;;;;;-1.34;100.00;93312.88;1065526;55;20154;-85
2020/12/17 02:29:33;;;;;;;;;;;;;;;-1.43;100.00;93309.63;1065830;55;20197;-84
2020/12/17 02:30:34;;;;;;;;;;;;;;;-1.56;100.00;93319.41;1067782;55;20165;-85
2020/12/17 02:31:35;;;;;;;;;;;;;;;-1.47;100.00;93314.00;1069901;55;20244;-87
2020/12/17 02:32:36;;;;;;;;;;;;;;;-1.47;100.00;93319.25;1065582;55;20181;-84
2020/12/17 02:33:37;;;;;;;;;;;;;;;-1.47;100.00;93311.41;1063459;55;20270;-85
2020/12/17 02:34:38;;;;;;;;;;;;;;;-1.48;100.00;93318.50;1065652;55;20176;-84
2020/12/17 02:35:39;;;;;;;;;;;;;;;-1.44;100.00;93319.34;1067802;55;20180;-85
2020/12/17 02:36:40;;;;;;;;;;;;;;;-1.35;100.00;93317.34;1065742;55;20251;-85
2020/12/17 02:37:43;;;;;;;;;;;;;;;-1.40;100.00;93324.69;1065678;55;20188;-85
2020/12/17 02:38:44;;;;;;;;;;;;;;;-1.40;100.00;93324.69;1063438;55;20299;-84
2020/12/17 02:39:46;;;;;;;;;;;;;;;-1.31;100.00;93326.06;1061994;55;20185;-86
2020/12/17 02:40:47;;;;;;;;;;;;;;;-1.29;100.00;93333.59;1063866;55;20269;-84
2020/12/17 02:41:47;;;;;;;;;;;;;;;-1.39;100.00;93329.59;1065970;55;20551;-85
2020/12/17 02:42:49;;;;;;;;;;;;;;;-1.42;100.00;93332.13;1063902;55;20217;-85
2020/12/17 02:43:50;;;;;;;;;;;;;;;-1.44;100.00;93334.31;1063843;55;20158;-85
2020/12/17 02:44:51;;;;;;;;;;;;;;;-1.42;100.00;93327.62;1061853;55;20646;-84
2020/12/17 02:45:51;;;;;;;;;;;;;;;-1.31;100.00;93328.69;1065922;55;20161;-85
2020/12/17 02:46:52;;;;;;;;;;;;;;;-1.29;100.00;93326.47;1065930;55;20173;-85
2020/12/17 02:47:53;;;;;;;;;;;;;;;-1.40;100.00;93329.94;1065944;55;20217;-84
2020/12/17 02:48:53;;;;;;;;;;;;;;;-1.41;100.00;93325.78;1068142;55;20610;-85
2020/12/17 02:49:54;;;;;;;;;;;;;;;-1.35;100.00;93321.84;1065855;55;20200;-83
2020/12/17 02:50:54;;;;;;;;;;;;;;;-1.32;100.00;93331.63;1066010;55;20251;-85
2020/12/17 02:51:55;;;;;;;;;;;;;;;-1.36;100.00;93325.53;1063841;55;20157;-83
2020/12/17 02:52:56;;;;;;;;;;;;;;;-1.31;100.00;93326.06;1065997;55;20157;-85
2020/12/17 02:53:56;;;;;;;;;;;;;;;-1.36;100.00;93330.78;1066101;55;20231;-84
2020/12/17 02:54:57;;;;;;;;;;;;;;;-1.39;100.00;93332.22;1066081;55;20162;-85
2020/12/17 02:55:57;;;;;;;;;;;;;;;-1.41;100.00;93331.03;1068116;55;20184;-84
2020/12/17 02:56:58;;;;;;;;;;;;;;;-1.32;100.00;93327.19;1068074;55;20149;-86
2020/12/17 02:57:58;;;;;;;;;;;;;;;-1.46;100.00;93329.41;1068154;55;20258;-85
2020/12/17 02:58:59;;;;;;;;;;;;;;;-1.39;100.00;93329.59;1063767;55;20186;-85
2020/12/17 03:00:00;;;;;;;;;;;;;;;-1.36;100.00;93331.56;1063848;55;21107;-84
2020/12/17 03:01:01;;;;;;;;;;;;;;;-1.35;100.00;93329.69;1066004;55;20270;-85
2020/12/17 03:02:01;;;;;;;;;;;;;;;-1.43;100.00;93326.13;1065862;55;20247;-86
2020/12/17 03:03:02;;;;;;;;;;;;;;;-1.45;100.00;93333.53;1065864;55;20188;-87
2020/12/17 03:04:03;;;;;;;;;;;;;;;-1.38;100.00;93322.50;1063803;55;20173;-84
2020/12/17 03:05:04;;;;;;;;;;;;;;;-1.39;100.00;93324.34;1065752;55;20202;-85
2020/12/17 03:06:05;;;;;;;;;;;;;;;-1.38;100.00;93325.13;1065824;55;20220;-86
2020/12/17 03:07:10;;;;;;;;;;;;;;;-1.41;100.00;93323.91;1063876;55;20161;-85
2020/12/17 03:08:10;;;;;;;;;;;;;;;-1.43;100.00;93320.12;1062894;55;20151;-85
2020/12/17 03:09:12;;;;;;;;;;;;;;;-1.41;100.00;93326.53;1068085;55;20165;-84
2020/12/17 03:10:13;;;;;;;;;;;;;;;-1.35;100.00;93314.72;1064958;55;20161;-85
2020/12/17 03:11:13;;;;;;;;;;;;;;;-1.36;100.00;93325.53;1065949;55;20565;-85
2020/12/17 03:12:14;;;;;;;;;;;;;;;-1.38;100.00;93325.88;1065940;55;20192;-87
2020/12/17 03:13:14;;;;;;;;;;;;;;;-1.36;100.00;93318.44;1065849;55;20576;-86
2020/12/17 03:14:15;;;;;;;;;;;;;;;-1.36;100.00;93307.97;1067995;55;20193;-84
2020/12/17 03:15:15;;;;;;;;;;;;;;;-1.33;100.00;93328.25;1068076;55;20613;-84
2020/12/17 03:16:16;;;;;;;;;;;;;;;-1.27;100.00;93318.31;1065360;55;20164;-85
2020/12/17 03:17:17;;;;;;;;;;;;;;;-1.31;100.00;93320.81;1063709;55;20177;-84
2020/12/17 03:18:17;;;;;;;;;;;;;;;-1.41;100.00;93320.53;1063856;55;20197;-86
2020/12/17 03:19:19;;;;;;;;;;;;;;;-1.40;100.00;93314.97;1063867;55;20158;-85
2020/12/17 03:20:19;;;;;;;;;;;;;;;-1.41;100.00;93316.03;1065870;55;20637;-86
2020/12/17 03:21:20;;;;;;;;;;;;;;;-1.44;100.00;93321.22;1063836;55;20150;-86
2020/12/17 03:22:20;;;;;;;;;;;;;;;-1.38;100.00;93312.75;1063849;55;20189;-84
2020/12/17 03:23:21;;;;;;;;;;;;;;;-1.38;100.00;93314.63;1065485;55;20172;-86
2020/12/17 03:24:22;;;;;;;;;;;;;;;-1.35;100.00;93319.22;1066062;55;20239;-84
2020/12/17 03:25:24;;;;;;;;;;;;;;;-1.24;100.00;93317.59;1063465;55;20157;-87
2020/12/17 03:26:24;;;;;;;;;;;;;;;-1.27;100.00;93324.31;1066069;55;20165;-87
2020/12/17 03:27:24;;;;;;;;;;;;;;;-1.21;100.00;93324.81;1068080;55;20334;-85
2020/12/17 03:28:25;;;;;;;;;;;;;;;-1.35;100.00;93321.84;1065657;55;20220;-85
2020/12/17 03:29:26;;;;;;;;;;;;;;;-1.34;100.00;93324.09;1066157;55;20157;-86
2020/12/17 03:30:26;;;;;;;;;;;;;;;-1.33;100.00;93327.50;1065682;55;20161;-85
2020/12/17 03:31:27;;;;;;;;;;;;;;;-1.35;100.00;93327.84;1068029;55;20168;-84
2020/12/17 03:32:28;;;;;;;;;;;;;;;-1.30;100.00;93327.59;1067958;55;21197;-85
2020/12/17 03:33:28;;;;;;;;;;;;;;;-1.35;100.00;93327.84;1065729;55;20177;-85
2020/12/17 03:34:30;;;;;;;;;;;;;;;-1.39;100.00;93336.72;1063620;55;20707;-84
2020/12/17 03:35:31;;;;;;;;;;;;;;;-1.38;100.00;93333.75;1063620;55;20262;-85
2020/12/17 03:36:31;;;;;;;;;;;;;;;-1.30;100.00;93332.06;1065687;55;20263;-84
2020/12/17 03:37:32;;;;;;;;;;;;;;;-1.35;100.00;93327.06;1063550;55;20169;-84
2020/12/17 03:38:32;;;;;;;;;;;;;;;-1.29;100.00;93325.72;1063732;55;20184;-85
2020/12/17 03:39:33;;;;;;;;;;;;;;;-1.37;100.00;93329.25;1065762;55;20172;-84
2020/12/17 03:40:33;;;;;;;;;;;;;;;-1.34;100.00;93333.84;1065721;55;20158;-85
2020/12/17 03:41:34;;;;;;;;;;;;;;;-1.31;100.00;93330.56;1065878;55;20166;-85
2020/12/17 03:42:34;;;;;;;;;;;;;;;-1.38;100.00;93333.75;1065861;55;20185;-84
2020/12/17 03:43:35;;;;;;;;;;;;;;;-1.33;100.00;93338.72;1066076;55;20161;-85
2020/12/17 03:44:35;;;;;;;;;;;;;;;-1.29;100.00;93338.84;1061627;56;20193;-85
2020/12/17 03:45:36;;;;;;;;;;;;;;;-1.31;100.00;93338.41;1063979;55;20181;-85
2020/12/17 03:46:37;;;;;;;;;;;;;;;-1.34;100.00;93339.09;1065829;55;20203;-86
2020/12/17 03:47:38;;;;;;;;;;;;;;;-1.40;100.00;93343.06;1068084;55;20164;-85
2020/12/17 03:48:39;;;;;;;;;;;;;;;-1.36;100.00;93344.66;1067990;55;20180;-84
2020/12/17 03:49:39;;;;;;;;;;;;;;;-1.24;100.00;93348.31;1066153;55;20188;-84
2020/12/17 03:50:41;;;;;;;;;;;;;;;-1.32;100.00;93344.75;1065692;55;20166;-85
2020/12/17 03:51:41;;;;;;;;;;;;;;;-1.33;100.00;93343.97;1063618;55;20157;-85
2020/12/17 03:52:44;;;;;;;;;;;;;;;-1.29;100.00;93344.84;1066134;55;20161;-85
2020/12/17 03:53:45;;;;;;;;;;;;;;;-1.27;100.00;93334.03;1065826;55;20685;-84
2020/12/17 03:54:46;;;;;;;;;;;;;;;-1.24;100.00;93343.84;1067988;55;20736;-84
2020/12/17 03:55:46;;;;;;;;;;;;;;;-1.19;100.00;93345.44;1067922;55;20165;-83
2020/12/17 03:56:47;;;;;;;;;;;;;;;-1.19;100.00;93342.81;1065829;55;20680;-87
2020/12/17 03:57:47;;;;;;;;;;;;;;;-1.19;100.00;93338.34;1065898;55;20256;-87
2020/12/17 03:58:48;;;;;;;;;;;;;;;-1.19;100.00;93340.97;1066184;55;20184;-87
2020/12/17 03:59:49;;;;;;;;;;;;;;;-1.21;100.00;93337.16;1065705;55;20185;-84
2020/12/17 04:00:49;;;;;;;;;;;;;;;-1.23;100.00;93337.47;1063364;55;20634;-85
2020/12/17 04:01:50;;;;;;;;;;;;;;;-1.23;100.00;93334.84;1065803;55;20181;-85
2020/12/17 04:02:50;;;;;;;;;;;;;;;-1.21;100.00;93337.16;1065856;55;20169;-85
2020/12/17 04:03:52;;;;;;;;;;;;;;;-1.29;100.00;93338.84;1065851;55;20251;-84
2020/12/17 04:04:53;;;;;;;;;;;;;;;-1.24;100.00;93341.22;1063557;55;20165;-85
2020/12/17 04:05:54;;;;;;;;;;;;;;;-1.23;100.00;93337.47;1063407;55;20252;-85
2020/12/17 04:06:54;;;;;;;;;;;;;;;-1.22;100.00;93344.28;1063458;55;20154;-85
2020/12/17 04:07:55;;;;;;;;;;;;;;;-1.27;100.00;93347.91;1063618;55;20173;-83
2020/12/17 04:08:55;;;;;;;;;;;;;;;-1.25;100.00;93347.56;1065764;55;20640;-84
2020/12/17 04:09:56;;;;;;;;;;;;;;;-1.24;100.00;93346.44;1067980;55;20188;-84
2020/12/17 04:10:56;;;;;;;;;;;;;;;-1.14;100.00;93345.19;1067794;55;20239;-84
2020/12/17 04:11:58;;;;;;;;;;;;;;;-1.15;100.00;93351.53;1068106;55;20675;-84
2020/12/17 04:12:59;;;;;;;;;;;;;;;-1.18;100.00;93349.63;1065980;55;20254;-86
2020/12/17 04:13:59;;;;;;;;;;;;;;;-1.20;100.00;93349.94;1065903;55;20177;-85
2020/12/17 04:15:00;;;;;;;;;;;;;;;-1.17;100.00;93348.50;1065921;55;20173;-84
2020/12/17 04:16:00;;;;;;;;;;;;;;;-1.17;100.00;93346.66;1065752;55;20248;-84
2020/12/17 04:17:02;;;;;;;;;;;;;;;-1.12;100.00;93353.50;1065770;55;20153;-86
2020/12/17 04:18:03;;;;;;;;;;;;;;;-1.23;100.00;93357.69;1065792;55;21082;-85
2020/12/17 04:19:04;;;;;;;;;;;;;;;-1.21;100.00;93356.28;1063741;55;20150;-85
2020/12/17 04:20:04;;;;;;;;;;;;;;;-1.24;100.00;93354.31;1065841;55;20161;-85
2020/12/17 04:21:05;;;;;;;;;;;;;;;-1.21;100.00;93358.91;1070211;55;20180;-84
2020/12/17 04:22:05;;;;;;;;;;;;;;;-1.23;100.00;93355.84;1068201;55;20185;-84
2020/12/17 04:23:06;;;;;;;;;;;;;;;-1.18;100.00;93353.00;1063610;55;20169;-85
2020/12/17 04:24:06;;;;;;;;;;;;;;;-1.18;100.00;93355.63;1063694;55;20626;-85
2020/12/17 04:25:07;;;;;;;;;;;;;;;-1.12;100.00;93354.28;1065831;55;20157;-84
2020/12/17 04:26:16;;;;;;;;;;;;;;;-1.13;100.00;93360.63;1065891;55;20157;-86
2020/12/17 04:27:17;;;;;;;;;;;;;;;-1.14;100.00;93361.72;1064020;55;20184;-84
2020/12/17 04:28:17;;;;;;;;;;;;;;;-1.22;100.00;93357.38;1061641;56;20567;-85
2020/12/17 04:29:18;;;;;;;;;;;;;;;-1.24;100.00;93364.06;1061610;56;20186;-85
2020/12/17 04:30:19;;;;;;;;;;;;;;;-1.15;100.00;93362.78;1063780;55;21087;-85
2020/12/17 04:31:19;;;;;;;;;;;;;;;-1.13;100.00;93362.47;1063565;55;20154;-85
2020/12/17 04:32:20;;;;;;;;;;;;;;;-1.18;100.00;93358.25;1063642;55;20158;-85
2020/12/17 04:33:21;;;;;;;;;;;;;;;-1.20;100.00;93357.81;1067985;55;20169;-86
2020/12/17 04:34:21;;;;;;;;;;;;;;;-1.11;100.00;93362.91;1065896;55;20161;-84
2020/12/17 04:35:22;;;;;;;;;;;;;;;-1.09;100.00;93356.22;1063774;55;20646;-85
2020/12/17 04:36:23;;;;;;;;;;;;;;;-1.13;100.00;93367.72;1065908;55;20173;-85
2020/12/17 04:37:24;;;;;;;;;;;;;;;-1.18;100.00;93360.09;1067906;55;20157;-83
2020/12/17 04:38:24;;;;;;;;;;;;;;;-1.11;100.00;93361.03;1065913;55;20180;-85
2020/12/17 04:39:25;;;;;;;;;;;;;;;-1.07;100.00;93364.50;1065913;55;20708;-84
2020/12/17 04:40:25;;;;;;;;;;;;;;;-1.15;100.00;93357.56;1065927;55;20652;-85
2020/12/17 04:41:26;;;;;;;;;;;;;;;-1.12;100.00;93356.88;1066085;55;20196;-85
2020/12/17 04:42:27;;;;;;;;;;;;;;;-1.17;100.00;93361.63;1066005;55;20574;-84
2020/12/17 04:43:27;;;;;;;;;;;;;;;-1.18;100.00;93357.47;1068065;55;20258;-84
2020/12/17 04:44:28;;;;;;;;;;;;;;;-1.08;100.00;93356.97;1068030;55;20172;-84
2020/12/17 04:45:29;;;;;;;;;;;;;;;-1.14;100.00;93364.34;1065980;55;20183;-85
2020/12/17 04:46:30;;;;;;;;;;;;;;;-1.09;100.00;93361.47;1065791;55;20181;-84
2020/12/17 04:47:31;;;;;;;;;;;;;;;-1.11;100.00;93355.03;1065842;55;20158;-84
2020/12/17 04:48:33;;;;;;;;;;;;;;;-1.07;100.00;93358.50;1065698;55;20154;-86
2020/12/17 04:49:37;;;;;;;;;;;;;;;-1.10;100.00;93359.94;1063497;55;20199;-86
2020/12/17 04:50:38;;;;;;;;;;;;;;;-1.13;100.00;93362.47;1061813;55;20180;-85
2020/12/17 04:51:41;;;;;;;;;;;;;;;-1.11;100.00;93365.50;1063759;55;20170;-86
2020/12/17 04:52:43;;;;;;;;;;;;;;;-1.06;100.00;93362.66;1065799;55;20248;-84
2020/12/17 04:53:44;;;;;;;;;;;;;;;-1.02;100.00;93359.00;1061426;55;21163;-85
2020/12/17 04:54:45;;;;;;;;;;;;;;;-0.98;100.00;93359.09;1063519;55;20161;-84
2020/12/17 04:55:47;;;;;;;;;;;;;;;-0.96;100.00;93364.03;1065726;55;20185;-84
2020/12/17 04:56:56;;;;;;;;;;;;;;;-1.05;100.00;93367.56;1067882;55;20157;-84
2020/12/17 04:57:57;;;;;;;;;;;;;;;-0.97;100.00;93363.25;1068094;55;20265;-85
2020/12/17 04:58:58;;;;;;;;;;;;;;;-0.89;100.00;93361.56;1065733;55;20176;-85
2020/12/17 04:59:59;;;;;;;;;;;;;;;-0.97;100.00;93368.50;1063546;55;20614;-85
2020/12/17 05:01:01;;;;;;;;;;;;;;;-0.95;100.00;93365.56;1067764;55;20177;-83
2020/12/17 05:02:05;;;;;;;;;;;;;;;-0.94;100.00;93367.84;1067627;55;20188;-84
2020/12/17 05:03:11;;;;;;;;;;;;;;;-0.89;100.00;93364.97;1065982;55;20188;-85
2020/12/17 05:04:14;;;;;;;;;;;;;;;-0.85;100.00;93376.31;1067905;55;20240;-85
2020/12/17 05:05:15;;;;;;;;;;;;;;;-0.86;100.00;93374.03;1065575;55;20215;-84
2020/12/17 05:06:22;;;;;;;;;;;;;;;-0.77;100.00;93382.50;1067745;55;20253;-84
2020/12/17 05:07:23;;;;;;;;;;;;;;;-0.83;100.00;93378.63;1067967;55;20180;-84
2020/12/17 05:08:24;;;;;;;;;;;;;;;-0.97;100.00;93375.59;1065590;55;20173;-84
2020/12/17 05:09:25;;;;;;;;;;;;;;;-0.95;100.00;93374.19;1065642;55;20696;-84
2020/12/17 05:10:25;;;;;;;;;;;;;;;-0.95;100.00;93376.81;1067783;55;20172;-84
2020/12/17 05:11:26;;;;;;;;;;;;;;;-0.92;100.00;93378.78;1065666;55;20642;-84
2020/12/17 05:12:26;;;;;;;;;;;;;;;-0.91;100.00;93377.66;1067796;55;20185;-84
2020/12/17 05:13:27;;;;;;;;;;;;;;;-0.86;100.00;93382.66;1067748;55;20183;-85